Time;durP1;ratioP1;P1;durP2;ratioP2;P2;SDS_P1;SDS_P2;PMS_P1;PMS_P2;Temp;Humidity;BMP_temperature;BMP_pressure;BME280_temperature;BME280_humidity;BME280_pressure;Samples;Min_cycle;Max_cycle;Signal;HPM_P1;HPM_P2
2020/12/04 00:02:19;;;;;;;117.97;48.10;;;;;;;3.08;68.44;99840.81;5057772;28;20423;-77
2020/12/04 00:04:44;;;;;;;105.57;41.27;;;;;;;3.24;68.33;99856.06;5039773;28;20029;-78
2020/12/04 00:07:10;;;;;;;102.17;43.07;;;;;;;2.88;68.35;99805.88;5058014;28;20411;-78
2020/12/04 00:09:35;;;;;;;109.40;42.33;;;;;;;3.38;68.40;99890.53;5057587;28;20039;-77
2020/12/04 00:12:01;;;;;;;109.80;44.27;;;;;;;3.46;68.09;99892.53;5040058;28;20108;-77
2020/12/04 00:14:26;;;;;;;109.17;41.93;;;;;;;2.71;68.24;99788.13;5060270;28;20431;-76
2020/12/04 00:16:52;;;;;;;105.27;41.77;;;;;;;3.38;68.58;99900.16;5060299;28;20057;-77
2020/12/04 00:19:17;;;;;;;107.50;44.67;;;;;;;2.87;68.76;99825.91;5040063;28;20415;-78
2020/12/04 00:21:42;;;;;;;96.80;42.50;;;;;;;3.02;68.32;99831.72;5039236;28;20025;-77
2020/12/04 00:24:08;;;;;;;97.93;39.53;;;;;;;2.72;68.50;99792.41;5039224;28;20033;-76
2020/12/04 00:26:37;;;;;;;100.90;39.57;;;;;;;3.37;68.51;99896.72;5057297;28;20029;-77
2020/12/04 00:29:04;;;;;;;98.93;39.43;;;;;;;3.37;68.71;99911.53;5057325;28;20100;-78
2020/12/04 00:31:30;;;;;;;106.13;41.13;;;;;;;3.11;68.74;99854.44;5057436;28;20032;-77
2020/12/04 00:33:55;;;;;;;90.60;37.27;;;;;;;3.11;68.60;99836.19;5057460;28;20033;-77
2020/12/04 00:36:20;;;;;;;101.07;38.70;;;;;;;3.14;68.75;99848.97;5056634;28;20029;-77
2020/12/04 00:38:46;;;;;;;89.03;37.77;;;;;;;3.04;68.98;99827.19;5039812;28;20060;-78
2020/12/04 00:41:11;;;;;;;91.80;38.20;;;;;;;3.23;68.81;99852.63;5061062;28;20416;-77
2020/12/04 00:43:36;;;;;;;90.93;37.73;;;;;;;3.51;68.44;99892.97;5060696;28;20025;-77
2020/12/04 00:46:02;;;;;;;93.90;37.77;;;;;;;3.31;68.34;99878.09;5061190;28;20035;-77
2020/12/04 00:48:27;;;;;;;88.00;36.27;;;;;;;3.10;68.74;99842.34;5060674;28;20056;-77
2020/12/04 00:50:52;;;;;;;83.60;37.30;;;;;;;3.35;69.16;99888.19;5061488;28;20064;-77
2020/12/04 00:53:18;;;;;;;96.10;37.70;;;;;;;3.35;68.69;99887.34;5061092;28;20096;-77
2020/12/04 00:55:43;;;;;;;82.10;35.87;;;;;;;3.13;68.93;99857.75;5061408;28;20033;-76
2020/12/04 00:58:09;;;;;;;82.10;33.17;;;;;;;2.85;69.12;99801.72;5061363;28;20447;-77
2020/12/04 01:00:34;;;;;;;84.03;35.67;;;;;;;3.43;68.60;99891.00;5043920;28;20043;-77
2020/12/04 01:02:59;;;;;;;83.87;37.60;;;;;;;3.16;68.79;99828.00;5061459;28;20033;-77
2020/12/04 01:05:24;;;;;;;80.37;35.03;;;;;;;3.39;68.42;99867.88;5061565;28;20029;-76
2020/12/04 01:07:50;;;;;;;93.17;36.10;;;;;;;3.39;68.69;99868.72;5061911;28;20025;-77
2020/12/04 01:10:15;;;;;;;92.10;35.60;;;;;;;2.92;68.51;99796.84;5061401;28;20029;-77
2020/12/04 01:12:42;;;;;;;81.97;31.63;;;;;;;2.79;68.83;99773.53;5060246;28;20025;-76
2020/12/04 01:15:08;;;;;;;78.37;33.03;;;;;;;3.05;68.67;99812.38;5060044;28;20060;-78
2020/12/04 01:17:35;;;;;;;109.90;44.50;;;;;;;3.48;68.45;99890.63;5042769;28;20501;-77
2020/12/04 01:20:01;;;;;;;101.53;41.17;;;;;;;3.43;68.59;99888.38;5047379;28;20092;-76
2020/12/04 01:22:27;;;;;;;83.27;35.03;;;;;;;3.45;69.08;99901.31;5065475;28;20048;-78
2020/12/04 01:24:52;;;;;;;81.43;35.23;;;;;;;3.09;68.89;99817.22;5042855;28;20036;-77
2020/12/04 01:27:17;;;;;;;80.33;36.93;;;;;;;3.47;68.68;99868.91;5042804;28;20386;-78
2020/12/04 01:29:43;;;;;;;83.17;33.97;;;;;;;2.99;68.36;99771.13;5060425;28;20029;-77
2020/12/04 01:32:08;;;;;;;85.07;36.87;;;;;;;3.32;68.80;99823.19;5060088;28;20111;-77
2020/12/04 01:34:33;;;;;;;85.30;37.10;;;;;;;3.08;68.62;99786.03;5042542;28;20055;-77
2020/12/04 01:36:59;;;;;;;84.07;37.57;;;;;;;2.92;68.75;99767.34;5059661;28;20029;-77
2020/12/04 01:39:24;;;;;;;81.20;35.73;;;;;;;2.50;68.83;99709.88;5059506;28;20025;-78
2020/12/04 01:41:50;;;;;;;80.70;36.10;;;;;;;3.39;68.94;99862.66;5060054;28;20040;-77
2020/12/04 01:44:15;;;;;;;79.33;34.77;;;;;;;3.21;69.03;99827.63;5060270;28;20039;-77
2020/12/04 01:46:40;;;;;;;83.60;36.53;;;;;;;2.42;69.42;99701.84;5061045;28;20111;-76
2020/12/04 01:49:06;;;;;;;82.47;37.13;;;;;;;3.37;69.59;99861.94;5061466;28;20063;-76
2020/12/04 01:51:32;;;;;;;85.03;37.17;;;;;;;3.31;69.33;99850.22;5060172;28;20098;-77
2020/12/04 01:53:58;;;;;;;96.37;38.47;;;;;;;3.45;69.19;99836.06;5043351;28;20107;-78
2020/12/04 01:56:23;;;;;;;86.27;37.93;;;;;;;3.17;69.06;99775.69;5059930;28;20057;-77
2020/12/04 01:58:49;;;;;;;84.30;35.90;;;;;;;3.19;68.71;99789.44;5049236;22;20060;-78
2020/12/04 02:01:16;;;;;;;94.37;37.60;;;;;;;2.90;69.13;99732.72;5059981;28;20025;-78
2020/12/04 02:03:42;;;;;;;99.70;37.53;;;;;;;2.95;69.04;99756.66;5060213;28;20063;-77
2020/12/04 02:06:21;;;;;;;91.30;36.70;;;;;;;3.42;69.21;99852.81;5059046;28;20029;-77
2020/12/04 02:09:01;;;;;;;94.00;36.10;;;;;;;3.42;69.30;99841.53;5067835;28;20160;-77
2020/12/04 02:11:29;;;;;;;94.10;37.30;;;;;;;3.44;69.18;99837.84;5059953;28;20025;-77
2020/12/04 02:13:55;;;;;;;86.50;32.60;;;;;;;2.94;69.17;99757.59;5059738;28;20056;-77
2020/12/04 02:16:22;;;;;;;88.53;34.87;;;;;;;2.90;69.05;99745.78;5058602;28;20028;-78
2020/12/04 02:18:50;;;;;;;79.47;32.73;;;;;;;3.46;69.38;99829.88;5059859;28;20025;-78
2020/12/04 02:21:16;;;;;;;95.60;35.03;;;;;;;2.96;69.11;99743.50;5060154;28;20378;-78
2020/12/04 02:24:00;;;;;;;85.20;35.90;;;;;;;3.35;70.26;99815.09;5059827;28;20025;-77
2020/12/04 02:26:27;;;;;;;85.47;34.63;;;;;;;3.37;69.25;99814.97;5060846;28;20413;-77
2020/12/04 02:28:53;;;;;;;86.23;35.00;;;;;;;2.91;69.47;99737.81;5060181;28;20026;-78
2020/12/04 02:31:21;;;;;;;91.50;34.63;;;;;;;3.38;69.73;99814.03;5060217;28;20025;-78
2020/12/04 02:33:48;;;;;;;90.37;36.33;;;;;;;3.31;69.59;99792.81;5060369;28;20427;-77
2020/12/04 02:36:14;;;;;;;92.67;34.23;;;;;;;3.39;69.56;99810.47;5067943;28;20037;-77
2020/12/04 02:38:40;;;;;;;86.77;35.33;;;;;;;3.27;69.71;99787.97;5060297;28;20484;-77
2020/12/04 02:41:09;;;;;;;84.43;34.40;;;;;;;3.10;69.62;99760.66;5058147;28;20017;-78
2020/12/04 02:43:36;;;;;;;86.83;34.13;;;;;;;2.87;69.48;99728.59;5059633;28;20044;-78
2020/12/04 02:46:01;;;;;;;101.00;39.80;;;;;;;3.17;69.48;99761.81;5059965;28;20407;-78
2020/12/04 02:48:27;;;;;;;92.60;36.60;;;;;;;3.42;69.38;99799.78;5058937;28;20037;-78
2020/12/04 02:50:52;;;;;;;88.87;34.50;;;;;;;3.12;69.55;99743.94;5059360;28;20052;-78
2020/12/04 02:53:17;;;;;;;79.63;34.80;;;;;;;2.69;69.42;99683.97;5058951;28;20028;-78
2020/12/04 02:55:43;;;;;;;91.50;37.60;;;;;;;3.45;69.71;99792.50;5059109;28;20025;-78
2020/12/04 02:58:08;;;;;;;111.97;37.23;;;;;;;2.81;69.43;99700.41;5059264;28;20028;-77
2020/12/04 03:00:33;;;;;;;100.67;39.57;;;;;;;3.24;70.21;99778.63;5061696;28;20024;-77
2020/12/04 03:02:59;;;;;;;95.50;37.03;;;;;;;2.75;69.75;99696.53;5077857;28;20320;-77
2020/12/04 03:05:24;;;;;;;100.53;35.37;;;;;;;2.91;70.03;99726.56;5061351;28;20059;-77
2020/12/04 03:07:50;;;;;;;100.83;36.17;;;;;;;2.92;69.94;99717.78;5079003;28;20036;-76
2020/12/04 03:10:15;;;;;;;91.67;35.73;;;;;;;3.05;70.19;99737.56;5077685;28;20020;-77
2020/12/04 03:12:41;;;;;;;111.33;37.87;;;;;;;3.06;70.12;99754.88;5078196;28;20020;-77
2020/12/04 03:15:07;;;;;;;96.77;37.10;;;;;;;3.09;70.21;99744.19;5070226;22;20352;-77
2020/12/04 03:17:32;;;;;;;94.63;35.60;;;;;;;2.43;70.13;99648.78;5058915;28;20427;-77
2020/12/04 03:19:58;;;;;;;109.37;42.80;;;;;;;2.71;70.46;99702.13;5041512;28;20031;-78
2020/12/04 03:22:26;;;;;;;78.67;33.77;;;;;;;3.29;70.22;99771.25;5058894;28;20029;-77
2020/12/04 03:24:51;;;;;;;91.97;34.50;;;;;;;2.73;69.95;99679.34;5058961;28;20031;-77
2020/12/04 03:27:17;;;;;;;94.87;34.07;;;;;;;2.82;70.15;99721.16;5058734;28;20415;-77
2020/12/04 03:29:42;;;;;;;77.63;33.23;;;;;;;3.22;70.58;99793.56;5041081;28;20120;-77
2020/12/04 03:32:10;;;;;;;87.47;35.00;;;;;;;3.18;70.32;99776.50;5059001;28;20351;-77
2020/12/04 03:34:35;;;;;;;90.80;32.90;;;;;;;2.85;70.07;99720.06;5058518;28;20025;-77
2020/12/04 03:37:01;;;;;;;83.27;34.20;;;;;;;2.93;70.06;99735.91;5058937;28;20079;-77
2020/12/04 03:39:27;;;;;;;74.17;31.83;;;;;;;3.31;70.34;99789.38;5060300;28;20029;-76
2020/12/04 03:41:52;;;;;;;81.40;33.27;;;;;;;3.01;69.97;99738.75;5048145;28;20029;-77
2020/12/04 03:44:17;;;;;;;74.63;30.73;;;;;;;2.98;70.01;99752.06;5059324;28;20051;-77
2020/12/04 03:46:45;;;;;;;86.00;32.77;;;;;;;3.04;69.98;99767.22;5041230;28;20027;-77
2020/12/04 03:49:14;;;;;;;91.80;34.77;;;;;;;3.42;70.48;99808.44;5058497;28;20059;-77
2020/12/04 03:51:40;;;;;;;89.83;34.07;;;;;;;3.47;70.09;99815.88;5058581;28;20017;-77
2020/12/04 03:54:06;;;;;;;92.70;36.97;;;;;;;3.48;70.30;99805.31;5058340;28;20031;-77
2020/12/04 03:56:32;;;;;;;81.77;31.20;;;;;;;3.39;69.98;99781.75;5058461;28;20053;-77
2020/12/04 03:58:57;;;;;;;96.83;36.60;;;;;;;3.26;70.43;99749.78;5041095;28;20048;-78
2020/12/04 04:01:22;;;;;;;103.00;35.17;;;;;;;3.43;70.35;99781.38;5047319;22;20025;-77
2020/12/04 04:03:48;;;;;;;90.00;35.93;;;;;;;3.19;70.23;99734.66;5058224;28;20105;-78
2020/12/04 04:06:13;;;;;;;102.10;36.50;;;;;;;3.30;70.11;99761.63;5040407;28;20029;-78
2020/12/04 04:08:38;;;;;;;92.43;36.37;;;;;;;1.69;70.30;99525.41;5048857;28;20449;-77
2020/12/04 04:11:04;;;;;;;104.03;37.30;;;;;;;2.81;70.57;99716.06;5058091;28;20056;-77
2020/12/04 04:13:29;;;;;;;82.83;35.80;;;;;;;2.77;70.62;99712.88;5059087;28;20028;-78
2020/12/04 04:15:55;;;;;;;74.17;31.40;;;;;;;3.43;70.67;99793.59;5063061;28;20025;-77
2020/12/04 04:18:20;;;;;;;75.83;30.43;;;;;;;3.48;70.02;99802.69;5062873;28;20021;-78
2020/12/04 04:20:46;;;;;;;76.33;31.87;;;;;;;3.51;70.13;99799.00;5044966;28;20403;-77
2020/12/04 04:23:12;;;;;;;76.73;29.97;;;;;;;3.37;70.35;99773.22;5061620;28;20029;-77
2020/12/04 04:25:38;;;;;;;75.43;31.73;;;;;;;3.26;69.95;99757.63;5062005;28;20033;-78
2020/12/04 04:30:28;;;;;;;71.75;30.30;;;;;;;2.85;70.08;99700.03;5068522;22;20053;-77
2020/12/04 04:32:54;;;;;;;69.50;30.60;;;;;;;3.43;70.43;99783.16;5043829;28;20036;-77
2020/12/04 04:35:19;;;;;;;78.73;31.10;;;;;;;3.43;70.02;99777.94;5062653;28;20029;-78
2020/12/04 04:37:44;;;;;;;62.67;28.50;;;;;;;3.45;70.07;99799.53;5062048;28;20035;-77
2020/12/04 04:40:10;;;;;;;58.10;25.00;;;;;;;3.55;70.30;99789.13;5061882;28;20419;-77
2020/12/04 04:42:35;;;;;;;65.27;27.77;;;;;;;3.46;70.19;99772.47;5061836;28;20390;-78
2020/12/04 04:45:04;;;;;;;50.43;25.30;;;;;;;3.46;70.13;99812.44;5045379;28;20029;-77
2020/12/04 04:47:30;;;;;;;57.87;27.47;;;;;;;3.36;69.84;99766.34;5049542;28;20097;-77
2020/12/04 04:49:56;;;;;;;36.60;18.87;;;;;;;3.61;70.22;99805.13;5044712;28;20112;-77
2020/12/04 04:52:23;;;;;;;38.13;19.80;;;;;;;3.68;70.19;99805.44;5044342;28;20025;-77
2020/12/04 04:54:49;;;;;;;43.80;21.03;;;;;;;3.22;70.07;99727.53;5062011;28;20082;-77
2020/12/04 04:57:22;;;;;;;40.10;21.33;;;;;;;3.45;70.17;99770.81;5061642;28;20029;-78
2020/12/04 04:59:48;;;;;;;38.43;19.43;;;;;;;3.41;69.82;99778.06;5061395;28;20388;-77
2020/12/04 05:02:15;;;;;;;36.27;21.47;;;;;;;3.47;69.92;99774.13;5061073;28;20094;-77
2020/12/04 05:04:51;;;;;;;39.80;20.40;;;;;;;3.65;70.01;99788.25;5061143;28;20028;-78
2020/12/04 05:07:24;;;;;;;36.93;20.10;;;;;;;3.66;70.00;99796.91;5074574;22;20045;-77
2020/12/04 05:09:50;;;;;;;46.57;22.03;;;;;;;3.46;70.10;99770.69;5040050;28;20375;-77
2020/12/04 05:12:16;;;;;;;39.07;21.43;;;;;;;3.69;70.24;99804.47;5041491;28;20192;-77
2020/12/04 05:14:41;;;;;;;51.90;23.50;;;;;;;2.89;70.04;99679.75;5041398;28;20492;-77
2020/12/04 05:17:10;;;;;;;52.13;22.80;;;;;;;3.64;70.34;99806.66;5041081;28;20065;-76
2020/12/04 05:19:42;;;;;;;45.97;24.23;;;;;;;3.53;70.61;99797.09;5040900;28;20025;-78
2020/12/04 05:22:17;;;;;;;47.45;24.67;;;;;;;3.03;70.78;99702.13;5040497;28;20112;-78
2020/12/04 05:24:44;;;;;;;44.07;21.73;;;;;;;3.62;70.24;99772.84;5039442;28;20074;-78
2020/12/04 05:27:29;;;;;;;47.37;24.67;;;;;;;3.60;70.32;99746.03;5040061;28;20033;-77
2020/12/04 05:29:56;;;;;;;45.97;21.23;;;;;;;3.79;69.57;99772.28;5039021;28;20344;-77
2020/12/04 05:32:23;;;;;;;40.80;19.67;;;;;;;3.90;69.97;99792.28;5039491;28;20366;-77
2020/12/04 05:34:50;;;;;;;33.17;17.10;;;;;;;3.91;69.85;99809.59;5038151;28;20025;-77
2020/12/04 05:37:19;;;;;;;32.70;18.63;;;;;;;3.47;69.59;99732.34;5039119;28;20430;-77
2020/12/04 05:39:49;;;;;;;34.30;18.20;;;;;;;3.88;69.45;99799.41;5038536;28;20032;-76
2020/12/04 05:42:34;;;;;;;39.53;19.13;;;;;;;3.84;69.84;99798.00;5029252;22;20160;-79
2020/12/04 05:45:00;;;;;;;36.10;19.60;;;;;;;3.85;69.84;99797.06;5019815;28;20052;-78
2020/12/04 05:47:40;;;;;;;32.97;18.50;;;;;;;3.85;69.63;99791.00;5019751;28;20025;-76
2020/12/04 05:50:10;;;;;;;35.43;18.47;;;;;;;3.83;69.20;99786.75;5020205;28;20036;-77
2020/12/04 05:52:37;;;;;;;38.10;19.73;;;;;;;3.83;69.47;99775.47;5031652;28;20402;-77
2020/12/04 05:55:08;;;;;;;36.77;20.27;;;;;;;3.74;69.53;99774.44;5021674;28;20070;-77
2020/12/04 05:57:46;;;;;;;44.97;22.23;;;;;;;3.80;69.46;99791.38;5040364;28;20044;-78
2020/12/04 06:00:15;;;;;;;46.93;25.17;;;;;;;3.76;69.89;99790.81;5022287;28;20025;-77
2020/12/04 06:02:40;;;;;;;52.80;28.20;;;;;;;3.63;69.74;99774.50;5039553;28;20026;-77
2020/12/04 06:05:10;;;;;;;52.27;27.73;;;;;;;3.47;69.61;99755.84;5040024;28;20033;-77
2020/12/04 06:07:36;;;;;;;49.90;27.27;;;;;;;3.42;69.81;99750.19;5039910;28;20032;-77
2020/12/04 06:10:01;;;;;;;59.27;29.70;;;;;;;3.78;69.56;99822.03;5039295;28;20052;-78
2020/12/04 06:12:27;;;;;;;59.63;30.90;;;;;;;3.70;69.59;99795.69;5039460;28;20030;-78
2020/12/04 06:14:52;;;;;;;59.50;32.13;;;;;;;3.42;69.67;99763.22;5039542;28;20083;-78
2020/12/04 06:17:18;;;;;;;60.00;30.53;;;;;;;3.55;69.77;99781.31;5054892;28;20045;-78
2020/12/04 06:19:45;;;;;;;59.87;32.60;;;;;;;3.87;69.75;99825.66;5039105;28;20108;-77
2020/12/04 06:22:13;;;;;;;64.53;34.10;;;;;;;3.91;69.45;99832.28;5064118;22;20041;-77
2020/12/04 06:27:35;;;;;;;64.90;32.13;;;;;;;3.88;69.48;99832.53;5059354;28;20068;-77
2020/12/04 06:30:05;;;;;;;64.43;35.20;;;;;;;3.92;69.02;99844.38;5058994;28;20339;-78
2020/12/04 06:32:41;;;;;;;77.03;38.30;;;;;;;3.98;69.56;99838.66;5058666;28;20111;-77
2020/12/04 06:35:06;;;;;;;74.67;37.83;;;;;;;3.96;69.31;99851.00;5058739;28;20032;-77
2020/12/04 06:37:39;;;;;;;80.23;42.00;;;;;;;3.96;69.91;99853.63;5040495;28;20029;-78
2020/12/04 06:40:22;;;;;;;;;;;;;;;3.88;69.82;99851.66;5059698;28;20424;-78
2020/12/04 06:42:48;;;;;;;92.80;44.60;;;;;;;3.67;69.83;99809.00;5058843;28;19935;-76
2020/12/04 06:45:13;;;;;;;92.53;44.47;;;;;;;3.95;69.83;99859.81;5051814;28;20443;-77
2020/12/04 06:47:38;;;;;;;97.70;46.00;;;;;;;3.97;69.62;99844.81;5056712;28;20029;-77
2020/12/04 06:50:04;;;;;;;109.77;52.93;;;;;;;3.78;69.79;99809.81;5051058;28;20347;-77
2020/12/04 06:52:29;;;;;;;69.00;37.30;;;;;;;3.63;70.18;99802.38;5039912;28;20028;-78
2020/12/04 06:54:55;;;;;;;76.63;41.00;;;;;;;3.81;69.93;99835.66;5056215;28;20025;-79
2020/12/04 06:57:22;;;;;;;84.90;40.10;;;;;;;4.02;69.70;99848.72;5074200;22;20059;-77
2020/12/04 06:59:48;;;;;;;84.57;42.33;;;;;;;3.91;69.69;99816.59;5054219;22;20044;-78
2020/12/04 07:02:16;;;;;;;81.57;42.77;;;;;;;3.94;69.89;99819.78;5043039;28;20040;-78
2020/12/04 07:04:50;;;;;;;90.50;44.50;;;;;;;3.95;69.82;99825.84;5059660;28;20078;-78
2020/12/04 07:07:19;;;;;;;86.67;39.87;;;;;;;3.99;70.04;99858.59;5061657;28;20031;-78
2020/12/04 07:09:58;;;;;;;76.60;37.77;;;;;;;3.92;69.96;99849.59;5061526;28;20442;-77
2020/12/04 07:12:26;;;;;;;77.53;39.20;;;;;;;3.81;70.10;99824.38;5057832;28;20092;-77
2020/12/04 07:14:56;;;;;;;76.30;37.17;;;;;;;3.83;69.79;99802.41;5049963;23;20048;-77
2020/12/04 07:17:27;;;;;;;70.53;34.63;;;;;;;4.02;70.01;99827.81;5073273;22;20037;-79
2020/12/04 07:19:54;;;;;;;78.63;40.77;;;;;;;3.75;69.61;99785.72;5037786;28;20033;-77
2020/12/04 07:22:21;;;;;;;73.10;38.33;;;;;;;4.06;69.54;99839.66;5039271;28;20040;-77
2020/12/04 07:24:48;;;;;;;74.13;41.23;;;;;;;3.54;69.83;99764.00;5038385;28;20041;-78
2020/12/04 07:27:16;;;;;;;73.73;37.13;;;;;;;4.02;69.54;99848.72;5038142;28;20066;-78
2020/12/04 07:29:42;;;;;;;68.77;35.83;;;;;;;4.07;69.88;99841.31;5020604;28;20059;-78
2020/12/04 07:32:08;;;;;;;64.13;36.43;;;;;;;4.06;69.51;99839.66;5034194;28;20098;-77
2020/12/04 07:34:36;;;;;;;68.97;36.90;;;;;;;3.87;69.53;99818.66;5034018;28;20093;-78
2020/12/04 07:37:03;;;;;;;56.63;30.93;;;;;;;3.55;69.72;99765.66;5017128;28;20423;-77
2020/12/04 07:39:31;;;;;;;63.80;31.57;;;;;;;3.60;69.51;99772.13;5035669;28;20347;-77
2020/12/04 07:41:58;;;;;;;50.13;27.50;;;;;;;3.84;69.76;99803.22;5016680;28;20053;-77
2020/12/04 07:44:27;;;;;;;49.63;27.97;;;;;;;4.11;69.32;99845.31;5035719;28;20029;-77
2020/12/04 07:47:08;;;;;;;36.30;21.70;;;;;;;3.08;69.76;99679.91;5035370;28;20036;-77
2020/12/04 07:49:36;;;;;;;32.63;18.97;;;;;;;3.70;69.54;99787.88;5035939;28;20126;-77
2020/12/04 07:52:09;;;;;;;34.77;19.70;;;;;;;4.14;69.53;99841.63;5038091;28;20049;-78
2020/12/04 07:54:35;;;;;;;42.63;22.83;;;;;;;4.07;69.58;99827.41;5037517;28;20459;-77
2020/12/04 07:57:01;;;;;;;45.93;25.67;;;;;;;4.17;69.36;99840.53;5037548;28;20029;-77
2020/12/04 07:59:29;;;;;;;76.03;32.73;;;;;;;4.05;69.64;99824.09;5019772;28;20030;-77
2020/12/04 08:01:55;;;;;;;69.77;34.33;;;;;;;4.09;69.27;99831.56;5021053;28;20033;-78
2020/12/04 08:04:21;;;;;;;76.07;33.03;;;;;;;3.57;69.09;99750.69;5022870;28;20052;-77
2020/12/04 08:06:47;;;;;;;70.30;32.90;;;;;;;4.10;70.14;99851.50;5019188;28;20121;-77
2020/12/04 08:09:16;;;;;;;94.80;41.07;;;;;;;3.71;69.33;99782.50;5035817;28;20033;-79
2020/12/04 08:11:55;;;;;;;74.57;36.07;;;;;;;4.10;69.83;99842.84;5036170;28;20028;-77
2020/12/04 08:14:23;;;;;;;79.60;34.67;;;;;;;4.10;69.52;99861.13;5036008;28;20095;-76
2020/12/04 08:16:53;;;;;;;73.10;34.30;;;;;;;3.99;69.54;99828.06;5037055;28;20030;-78
2020/12/04 08:19:18;;;;;;;83.20;38.70;;;;;;;4.06;69.54;99823.97;5034417;28;20029;-77
2020/12/04 08:22:07;;;;;;;76.87;36.50;;;;;;;3.79;69.67;99784.50;5030621;28;20092;-76
2020/12/04 08:24:39;;;;;;;67.03;28.97;;;;;;;4.22;69.93;99852.25;5014896;28;20030;-78
2020/12/04 08:27:12;;;;;;;63.97;30.73;;;;;;;4.29;69.46;99858.63;5026196;28;20084;-76
2020/12/04 08:30:01;;;;;;;66.83;31.23;;;;;;;4.01;69.40;99796.59;5028632;28;20033;-77
2020/12/04 08:32:27;;;;;;;68.63;32.03;;;;;;;4.38;69.12;99860.44;5014987;28;20087;-76
2020/12/04 08:35:07;;;;;;;62.83;30.70;;;;;;;3.95;69.51;99791.88;5015947;28;20029;-77
2020/12/04 08:37:32;;;;;;;68.23;31.03;;;;;;;3.74;69.79;99771.00;5015604;28;20109;-77
2020/12/04 08:39:58;;;;;;;64.23;29.50;;;;;;;3.81;69.50;99783.44;5017226;28;20087;-77
2020/12/04 08:42:31;;;;;;;66.87;31.57;;;;;;;4.40;69.19;99855.91;5034295;28;20025;-76
2020/12/04 08:45:08;;;;;;;65.03;30.90;;;;;;;4.36;69.57;99851.91;5035462;28;20029;-76
2020/12/04 08:47:42;;;;;;;66.57;32.97;;;;;;;4.44;69.32;99857.31;5015245;28;20521;-75
2020/12/04 08:50:10;;;;;;;68.60;34.80;;;;;;;4.05;68.95;99787.53;5014597;28;20043;-76
2020/12/04 08:52:49;;;;;;;75.67;35.53;;;;;;;4.28;69.09;99827.38;5035661;28;20032;-75
2020/12/04 08:55:23;;;;;;;73.83;36.67;;;;;;;3.95;69.23;99784.88;5035759;28;20038;-77
2020/12/04 08:57:52;;;;;;;63.93;30.47;;;;;;;4.42;69.04;99833.09;5017594;28;20458;-76
2020/12/04 09:00:19;;;;;;;77.30;34.03;;;;;;;4.53;68.93;99841.81;5019864;28;20061;-76
2020/12/04 09:02:46;;;;;;;81.13;38.67;;;;;;;4.20;69.54;99781.00;5039841;28;20156;-77
2020/12/04 09:05:16;;;;;;;74.77;35.67;;;;;;;4.32;69.29;99786.94;5040493;28;20119;-77
2020/12/04 09:07:43;;;;;;;84.07;40.30;;;;;;;4.34;69.27;99806.78;5043052;28;20030;-76
2020/12/04 09:10:11;;;;;;;79.83;40.43;;;;;;;4.45;69.92;99826.75;5022664;28;20111;-76
2020/12/04 09:12:38;;;;;;;72.13;32.87;;;;;;;4.24;69.16;99786.78;5039066;28;20411;-77
2020/12/04 09:15:06;;;;;;;72.70;34.47;;;;;;;4.57;69.32;99820.50;5038274;28;20039;-77
2020/12/04 09:17:31;;;;;;;64.90;33.70;;;;;;;4.52;69.46;99799.16;5037821;28;20033;-77
2020/12/04 09:19:56;;;;;;;74.03;34.30;;;;;;;4.63;69.45;99824.38;5025364;28;20029;-76
2020/12/04 09:22:22;;;;;;;64.07;31.40;;;;;;;4.45;69.20;99791.00;5037250;28;20041;-79
2020/12/04 09:24:49;;;;;;;61.37;30.87;;;;;;;4.35;69.19;99776.22;5021911;28;20037;-77
2020/12/04 09:27:15;;;;;;;71.27;36.20;;;;;;;4.36;69.28;99781.31;5035330;28;20029;-75
2020/12/04 09:29:41;;;;;;;73.00;35.00;;;;;;;4.71;68.89;99808.84;5037908;28;20021;-76
2020/12/04 09:32:17;;;;;;;64.77;31.43;;;;;;;4.19;69.13;99724.47;5040603;28;20348;-77
2020/12/04 09:34:44;;;;;;;71.70;32.13;;;;;;;4.63;69.11;99769.47;5028930;23;20053;-77
2020/12/04 09:37:30;;;;;;;81.00;34.93;;;;;;;4.69;69.13;99772.34;5038197;28;20060;-75
2020/12/04 09:39:58;;;;;;;67.73;30.67;;;;;;;4.86;68.83;99802.25;5046079;28;20109;-76
2020/12/04 09:42:26;;;;;;;82.20;35.57;;;;;;;4.90;69.04;99803.66;5019350;28;20056;-77
2020/12/04 09:44:53;;;;;;;81.47;34.77;;;;;;;4.89;68.69;99804.59;5042059;28;20034;-78
2020/12/04 09:47:20;;;;;;;81.90;34.33;;;;;;;4.11;68.73;99669.44;5017851;28;20044;-76
2020/12/04 09:49:46;;;;;;;79.30;34.37;;;;;;;4.74;68.79;99771.94;5038537;28;20025;-77
2020/12/04 09:52:14;;;;;;;75.50;36.17;;;;;;;4.84;69.11;99788.50;5020320;28;20356;-77
2020/12/04 09:54:41;;;;;;;73.77;32.13;;;;;;;4.40;68.94;99722.59;5021758;28;20034;-77
2020/12/04 09:57:08;;;;;;;77.80;35.17;;;;;;;4.78;68.97;99768.09;5038416;28;20424;-77
2020/12/04 09:59:34;;;;;;;80.53;35.90;;;;;;;4.94;68.63;99773.63;5036513;28;20039;-76
2020/12/04 10:02:00;;;;;;;69.77;34.27;;;;;;;4.78;69.01;99727.09;5037505;28;20104;-76
2020/12/04 10:04:26;;;;;;;70.83;30.90;;;;;;;5.13;68.47;99764.13;5038682;28;20132;-75
2020/12/04 10:06:53;;;;;;;71.23;32.03;;;;;;;5.14;68.11;99758.75;5020943;28;20418;-76
2020/12/04 10:09:19;;;;;;;75.53;32.23;;;;;;;4.65;68.35;99687.28;5020134;28;20029;-76
2020/12/04 10:11:46;;;;;;;66.77;31.87;;;;;;;5.17;68.11;99763.72;5040823;28;20060;-76
2020/12/04 10:14:11;;;;;;;68.37;33.10;;;;;;;5.21;68.33;99765.13;5040638;28;20428;-77
2020/12/04 10:16:37;;;;;;;75.27;32.93;;;;;;;4.90;68.38;99730.38;5039647;28;20040;-77
2020/12/04 10:19:03;;;;;;;71.80;33.40;;;;;;;5.18;68.19;99761.94;5040241;28;20030;-77
2020/12/04 10:21:34;;;;;;;73.50;35.67;;;;;;;5.21;68.15;99759.88;5021763;28;20107;-76
2020/12/04 10:24:04;;;;;;;80.37;39.20;;;;;;;4.80;68.33;99687.72;5036755;28;20025;-76
2020/12/04 10:26:29;;;;;;;73.50;33.83;;;;;;;4.90;68.24;99709.47;5008973;28;20034;-76
2020/12/04 10:28:55;;;;;;;67.90;31.17;;;;;;;5.27;68.25;99756.72;5034357;28;20474;-76
2020/12/04 10:31:21;;;;;;;63.03;32.23;;;;;;;5.25;68.26;99757.81;5037509;28;20017;-77
2020/12/04 10:33:46;;;;;;;72.90;36.53;;;;;;;5.28;68.24;99749.69;5035500;28;20096;-78
2020/12/04 10:36:13;;;;;;;77.33;36.63;;;;;;;4.94;68.24;99692.53;5037787;28;20029;-78
2020/12/04 10:38:38;;;;;;;78.17;36.70;;;;;;;5.29;68.33;99746.09;5020259;28;20037;-77
2020/12/04 10:41:04;;;;;;;76.03;36.57;;;;;;;5.34;68.15;99759.59;5032357;28;20378;-78
2020/12/04 10:43:29;;;;;;;73.93;34.67;;;;;;;5.35;68.05;99750.78;5005116;28;20034;-78
2020/12/04 10:45:54;;;;;;;84.13;41.30;;;;;;;4.75;68.22;99666.38;5019108;28;20416;-78
2020/12/04 10:48:20;;;;;;;83.63;38.43;;;;;;;5.08;68.59;99728.72;5014120;28;20037;-79
2020/12/04 10:50:47;;;;;;;87.73;40.33;;;;;;;4.73;68.60;99682.19;5018355;28;20447;-78
2020/12/04 10:53:13;;;;;;;82.07;38.53;;;;;;;4.91;68.96;99734.66;5018616;28;20026;-78
2020/12/04 10:55:42;;;;;;;67.70;34.80;;;;;;;5.09;68.69;99761.78;5017945;28;20379;-78
2020/12/04 10:58:07;;;;;;;65.90;32.37;;;;;;;5.12;68.43;99745.00;5000366;28;20065;-78
2020/12/04 11:00:32;;;;;;;72.67;38.60;;;;;;;4.81;68.69;99683.31;5014886;28;20060;-78
2020/12/04 11:03:08;;;;;;;74.90;36.47;;;;;;;4.94;68.84;99697.75;5037226;28;20477;-77
2020/12/04 11:08:01;;;;;;;71.83;35.47;;;;;;;4.78;68.52;99647.78;5037505;28;20113;-78
2020/12/04 11:10:26;;;;;;;76.70;36.90;;;;;;;5.33;68.42;99729.16;5008845;28;20046;-78
2020/12/04 11:12:52;;;;;;;69.10;36.03;;;;;;;5.41;68.44;99727.50;5001361;28;20029;-77
2020/12/04 11:15:17;;;;;;;73.20;34.43;;;;;;;5.37;68.20;99707.78;5032317;28;20431;-77
2020/12/04 11:17:42;;;;;;;81.50;42.30;;;;;;;5.22;68.61;99700.50;5023855;28;20103;-77
2020/12/04 11:20:08;;;;;;;85.20;38.10;;;;;;;5.12;68.42;99692.66;5021548;28;20029;-78
2020/12/04 11:22:35;;;;;;;82.50;40.17;;;;;;;4.95;68.83;99673.25;5039925;28;20032;-79
2020/12/04 11:25:01;;;;;;;79.27;37.00;;;;;;;4.55;68.51;99608.00;5041381;28;20448;-78
2020/12/04 11:27:28;;;;;;;88.73;40.27;;;;;;;5.25;68.59;99703.69;5039868;28;20034;-78
2020/12/04 11:29:53;;;;;;;81.80;41.37;;;;;;;5.29;68.76;99709.47;5006149;28;20329;-77
2020/12/04 11:32:19;;;;;;;80.73;38.70;;;;;;;5.30;68.59;99700.63;5017087;28;20056;-77
2020/12/04 11:34:44;;;;;;;76.93;37.47;;;;;;;5.06;68.37;99653.94;5025492;28;20109;-76